createdAt,value
2017-08-24T00:02:15.846Z,7.10
2017-08-24T00:04:42.439Z,6.43
2017-08-24T00:07:09.017Z,6.60
2017-08-24T00:09:35.589Z,7.20
2017-08-24T00:12:02.313Z,6.40
2017-08-24T00:14:28.888Z,6.93
2017-08-24T00:16:55.544Z,7.00
2017-08-24T00:19:22.460Z,6.97
2017-08-24T00:21:49.028Z,7.00
2017-08-24T00:24:15.604Z,7.10
2017-08-24T00:26:42.333Z,6.73
2017-08-24T00:29:08.907Z,6.53
2017-08-24T00:31:35.484Z,7.07
2017-08-24T00:34:02.228Z,7.30
2017-08-24T00:36:28.799Z,7.73
2017-08-24T00:38:55.376Z,7.23
2017-08-24T00:41:22.104Z,7.80
2017-08-24T00:43:48.682Z,8.00
2017-08-24T00:46:15.252Z,7.37
2017-08-24T00:48:41.853Z,7.60
2017-08-24T00:51:08.420Z,8.07
2017-08-24T00:53:34.994Z,7.80
2017-08-24T00:56:01.725Z,7.30
2017-08-24T00:58:28.301Z,7.00
2017-08-24T01:00:54.864Z,7.23
2017-08-24T01:03:21.563Z,7.37
2017-08-24T01:05:48.130Z,7.17
2017-08-24T01:08:14.705Z,7.97
2017-08-24T01:10:41.399Z,7.77
2017-08-24T01:13:07.986Z,7.60
2017-08-24T01:15:34.560Z,7.67
2017-08-24T01:18:01.253Z,6.90
2017-08-24T01:20:27.825Z,6.90
2017-08-24T01:22:54.398Z,7.20
2017-08-24T01:25:21.133Z,7.27
2017-08-24T01:27:47.705Z,8.00
2017-08-24T01:30:14.282Z,8.33
2017-08-24T01:32:41.012Z,8.60
2017-08-24T01:35:07.584Z,10.20
2017-08-24T01:37:34.173Z,9.93
2017-08-24T01:40:00.768Z,10.00
2017-08-24T01:42:27.339Z,8.80
2017-08-24T01:44:53.908Z,8.57
2017-08-24T01:47:20.905Z,6.53
2017-08-24T01:49:47.560Z,7.20
2017-08-24T01:52:14.134Z,7.00
2017-08-24T01:54:40.821Z,5.90
2017-08-24T01:57:07.388Z,5.57
2017-08-24T01:59:33.965Z,5.97
2017-08-24T02:02:00.548Z,6.10
2017-08-24T02:04:27.244Z,6.40
2017-08-24T02:06:53.824Z,6.03
2017-08-24T02:09:20.429Z,5.67
2017-08-24T02:11:47.008Z,6.30
2017-08-24T02:14:13.581Z,5.60
2017-08-24T02:16:40.199Z,5.80
2017-08-24T02:19:06.772Z,5.60
2017-08-24T02:21:33.396Z,5.60
2017-08-24T02:24:00.409Z,6.40
2017-08-24T02:26:26.969Z,6.10
2017-08-24T02:28:53.546Z,5.73
2017-08-24T02:31:20.224Z,5.67
2017-08-24T02:33:46.805Z,6.10
2017-08-24T02:36:13.380Z,5.17
2017-08-24T02:38:40.119Z,5.83
2017-08-24T02:41:06.716Z,5.73
2017-08-24T02:43:33.311Z,4.30
2017-08-24T02:46:00.224Z,5.23
2017-08-24T02:48:26.801Z,4.97
2017-08-24T02:50:53.375Z,4.37
2017-08-24T02:53:19.964Z,4.50
2017-08-24T02:55:46.545Z,4.07
2017-08-24T02:58:13.118Z,3.80
2017-08-24T03:00:40.046Z,4.70
2017-08-24T03:03:06.654Z,4.40
2017-08-24T03:05:33.212Z,4.33
2017-08-24T03:07:59.899Z,4.70
2017-08-24T03:10:26.468Z,5.00
2017-08-24T03:12:53.043Z,5.00
2017-08-24T03:15:19.776Z,4.83
2017-08-24T03:17:46.339Z,4.37
2017-08-24T03:20:12.908Z,4.27
2017-08-24T03:22:39.504Z,4.93
2017-08-24T03:25:06.100Z,5.70
2017-08-24T03:27:32.676Z,4.60
2017-08-24T03:29:59.408Z,5.53
2017-08-24T03:32:25.985Z,4.30
2017-08-24T03:34:52.556Z,4.77
2017-08-24T03:37:19.184Z,4.80
2017-08-24T03:39:45.785Z,4.90
2017-08-24T03:42:12.360Z,4.67
2017-08-24T03:44:39.074Z,4.33
2017-08-24T03:47:05.676Z,4.63
2017-08-24T03:49:32.228Z,4.60
2017-08-24T03:51:58.827Z,4.47
2017-08-24T03:54:25.410Z,4.40
2017-08-24T03:56:51.989Z,4.80
2017-08-24T03:59:18.712Z,4.80
2017-08-24T04:01:45.288Z,5.80
2017-08-24T04:04:11.860Z,6.73
2017-08-24T04:06:38.593Z,8.43
2017-08-24T04:09:05.181Z,9.10
2017-08-24T04:11:31.757Z,13.50
2017-08-24T04:13:58.531Z,15.37
2017-08-24T04:16:25.125Z,14.73
2017-08-24T04:18:51.704Z,16.27
2017-08-24T04:21:18.302Z,15.53
2017-08-24T04:23:44.885Z,16.23
2017-08-24T04:26:11.465Z,15.43
2017-08-24T04:28:38.068Z,13.80
2017-08-24T04:31:04.757Z,14.30
2017-08-24T04:33:31.384Z,12.90
2017-08-24T04:35:58.077Z,13.37
2017-08-24T04:38:24.655Z,11.83
2017-08-24T04:40:51.233Z,11.80
2017-08-24T04:43:17.920Z,11.97
2017-08-24T04:45:44.508Z,11.20
2017-08-24T04:48:11.149Z,10.20
2017-08-24T04:50:37.884Z,9.63
2017-08-24T04:53:04.464Z,11.20
2017-08-24T04:55:31.044Z,9.50
2017-08-24T04:57:57.790Z,9.87
2017-08-24T05:00:24.352Z,9.27
2017-08-24T05:02:50.926Z,9.60
2017-08-24T05:05:17.516Z,8.73
2017-08-24T05:07:44.092Z,9.57
2017-08-24T05:10:10.668Z,9.20
2017-08-24T05:12:37.291Z,9.87
2017-08-24T05:15:03.868Z,9.60
2017-08-24T05:17:37.336Z,8.60
2017-08-24T05:20:03.920Z,8.23
2017-08-24T05:22:30.514Z,8.00
2017-08-24T05:24:57.248Z,8.47
2017-08-24T05:27:23.823Z,8.83
2017-08-24T05:29:50.400Z,9.10
2017-08-24T05:32:17.026Z,8.10
2017-08-24T05:34:43.608Z,8.23
2017-08-24T05:37:10.229Z,8.47
2017-08-24T05:39:37.148Z,8.00
2017-08-24T05:42:03.732Z,8.40
2017-08-24T05:44:30.300Z,7.93
2017-08-24T05:46:56.983Z,7.53
2017-08-24T05:49:23.555Z,8.00
2017-08-24T05:51:50.136Z,7.50
2017-08-24T05:54:17.096Z,7.87
2017-08-24T05:56:43.681Z,8.53
2017-08-24T05:59:10.259Z,8.00
2017-08-24T06:01:37.770Z,7.57
2017-08-24T06:04:04.352Z,7.80
2017-08-24T06:06:30.933Z,8.53
2017-08-24T06:08:57.660Z,8.23
2017-08-24T06:11:24.247Z,7.47
2017-08-24T06:13:50.824Z,9.60
2017-08-24T06:16:17.428Z,9.30
2017-08-24T06:18:44.000Z,9.00
2017-08-24T06:21:10.576Z,9.20
2017-08-24T06:23:37.205Z,9.60
2017-08-24T06:26:03.777Z,9.80
2017-08-24T06:28:30.389Z,9.43
2017-08-24T06:30:56.973Z,10.73
2017-08-24T06:33:23.563Z,10.83
2017-08-24T06:35:50.157Z,10.87
2017-08-24T06:38:16.727Z,9.60
2017-08-24T06:40:43.305Z,10.57
2017-08-24T06:43:09.888Z,9.53
2017-08-24T06:45:37.272Z,8.83
2017-08-24T06:48:04.008Z,9.63
2017-08-24T06:50:30.589Z,11.40
2017-08-24T06:52:57.167Z,11.80
2017-08-24T06:55:24.109Z,11.70
2017-08-24T06:57:50.697Z,11.30
2017-08-24T07:00:17.272Z,11.20
2017-08-24T07:02:44.001Z,11.70
2017-08-24T07:05:10.582Z,11.10
2017-08-24T07:07:37.168Z,12.00
2017-08-24T07:10:03.858Z,14.03
2017-08-24T07:12:30.438Z,11.53
2017-08-24T07:14:57.067Z,11.90
2017-08-24T07:17:23.693Z,12.80
2017-08-24T07:19:50.276Z,12.00
2017-08-24T07:22:16.857Z,12.10
2017-08-24T07:24:43.444Z,10.93
2017-08-24T07:27:10.024Z,10.97
2017-08-24T07:29:36.602Z,10.13
2017-08-24T07:32:03.298Z,10.33
2017-08-24T07:34:29.872Z,9.40
2017-08-24T07:36:56.445Z,9.37
2017-08-24T07:39:23.168Z,9.40
2017-08-24T07:41:49.741Z,8.87
2017-08-24T07:44:16.319Z,8.83
2017-08-24T07:46:43.041Z,8.80
2017-08-24T07:49:09.625Z,9.13
2017-08-24T07:51:36.200Z,8.40
2017-08-24T07:54:02.824Z,8.73
2017-08-24T07:56:29.412Z,8.50
2017-08-24T07:58:55.990Z,8.10
2017-08-24T08:01:22.577Z,9.40
2017-08-24T08:03:49.156Z,8.83
2017-08-24T08:06:16.352Z,9.93
2017-08-24T08:08:43.356Z,7.90
2017-08-24T08:11:09.964Z,8.37
2017-08-24T08:13:36.540Z,8.13
2017-08-24T08:16:03.221Z,8.10
2017-08-24T08:18:29.801Z,8.07
2017-08-24T08:20:56.376Z,7.97
2017-08-24T08:23:23.166Z,7.70
2017-08-24T08:25:49.740Z,6.67
2017-08-24T08:28:16.357Z,7.13
2017-08-24T08:30:43.008Z,7.53
2017-08-24T08:33:09.628Z,8.20
2017-08-24T08:35:36.202Z,7.00
2017-08-24T08:38:02.873Z,6.33
2017-08-24T08:40:29.452Z,6.70
2017-08-24T08:42:56.028Z,6.00
2017-08-24T08:45:22.932Z,6.20
2017-08-24T08:47:49.513Z,5.40
2017-08-24T08:50:16.120Z,6.13
2017-08-24T08:52:43.076Z,5.60
2017-08-24T08:55:09.655Z,5.13
2017-08-24T08:57:36.228Z,5.40
2017-08-24T09:00:02.855Z,5.50
2017-08-24T09:02:29.423Z,5.00
2017-08-24T09:04:55.996Z,4.93
2017-08-24T09:07:22.590Z,4.70
2017-08-24T09:09:49.160Z,4.90
2017-08-24T09:12:15.730Z,4.40
2017-08-24T09:14:42.663Z,4.73
2017-08-24T09:17:09.236Z,4.67
2017-08-24T09:19:35.867Z,4.43
2017-08-24T09:22:02.718Z,4.60
2017-08-24T09:24:29.301Z,4.10
2017-08-24T09:26:55.887Z,4.17
2017-08-24T09:29:22.556Z,4.57
2017-08-24T09:31:49.134Z,4.50
2017-08-24T09:34:15.721Z,4.47
2017-08-24T09:36:42.336Z,4.60
2017-08-24T09:39:08.912Z,4.53
2017-08-24T09:41:35.494Z,5.20
2017-08-24T09:44:02.107Z,5.37
2017-08-24T09:46:28.668Z,4.60
2017-08-24T09:48:55.249Z,4.87
2017-08-24T09:51:21.980Z,6.10
2017-08-24T09:53:48.559Z,5.90
2017-08-24T09:56:15.130Z,6.43
2017-08-24T09:58:41.808Z,6.63
2017-08-24T10:01:08.389Z,6.77
2017-08-24T10:03:34.975Z,5.80
2017-08-24T10:06:01.576Z,6.10
2017-08-24T10:08:28.169Z,5.40
2017-08-24T10:10:54.744Z,5.70
2017-08-24T10:13:21.333Z,6.00
2017-08-24T10:15:47.908Z,5.47
2017-08-24T10:18:14.489Z,6.10
2017-08-24T10:20:41.237Z,5.07
2017-08-24T10:23:07.817Z,5.13
2017-08-24T10:25:34.393Z,4.90
2017-08-24T10:28:01.116Z,5.10
2017-08-24T10:30:27.717Z,5.50
2017-08-24T10:32:54.269Z,6.23
2017-08-24T10:35:20.873Z,5.53
2017-08-24T10:37:47.476Z,4.83
2017-08-24T10:40:14.072Z,5.27
2017-08-24T10:42:41.119Z,4.67
2017-08-24T10:45:07.785Z,5.90
2017-08-24T10:47:34.352Z,5.10
2017-08-24T10:50:01.076Z,4.80
2017-08-24T10:52:28.049Z,4.90
2017-08-24T10:54:54.752Z,4.63
2017-08-24T10:57:21.348Z,4.47
2017-08-24T10:59:47.910Z,4.23
2017-08-24T11:02:14.497Z,4.90
2017-08-24T11:04:41.108Z,4.97
2017-08-24T11:07:07.676Z,4.67
2017-08-24T11:09:34.248Z,5.43
2017-08-24T11:12:01.175Z,5.70
2017-08-24T11:14:27.776Z,5.30
2017-08-24T11:16:54.364Z,5.23
2017-08-24T11:19:21.108Z,5.40
2017-08-24T11:21:47.689Z,5.20
2017-08-24T11:24:14.300Z,5.90
2017-08-24T11:26:41.033Z,5.30
2017-08-24T11:29:07.687Z,5.50
2017-08-24T11:31:34.245Z,5.50
2017-08-24T11:34:00.845Z,5.40
2017-08-24T11:36:27.429Z,5.80
2017-08-24T11:38:54.000Z,5.53
2017-08-24T11:41:20.724Z,4.60
2017-08-24T11:43:47.300Z,4.47
2017-08-24T11:46:13.906Z,4.40
2017-08-24T11:48:40.633Z,4.40
2017-08-24T11:51:07.418Z,5.23
2017-08-24T11:53:34.079Z,4.73
2017-08-24T11:56:00.757Z,4.73
2017-08-24T11:58:27.337Z,5.10
2017-08-24T12:00:53.908Z,4.40
2017-08-24T12:03:20.525Z,4.70
2017-08-24T12:05:47.100Z,5.30
2017-08-24T12:08:13.736Z,4.90
2017-08-24T12:10:40.649Z,4.37
2017-08-24T12:13:07.402Z,4.90
2017-08-24T12:15:34.009Z,4.37
2017-08-24T12:18:00.736Z,4.60
2017-08-24T12:20:27.313Z,4.53
2017-08-24T12:22:53.880Z,5.00
2017-08-24T12:25:20.519Z,5.23
2017-08-24T12:27:47.095Z,4.40
2017-08-24T12:30:13.663Z,5.00
2017-08-24T12:32:41.211Z,4.53
2017-08-24T12:35:07.922Z,4.87
2017-08-24T12:37:34.547Z,4.57
2017-08-24T12:40:01.272Z,4.70
2017-08-24T12:42:27.875Z,4.13
2017-08-24T12:44:54.444Z,4.20
2017-08-24T12:47:21.048Z,4.47
2017-08-24T12:49:47.630Z,4.93
2017-08-24T12:52:14.200Z,5.30
2017-08-24T12:54:41.428Z,4.70
2017-08-24T12:57:08.110Z,4.83
2017-08-24T12:59:34.677Z,5.10
2017-08-24T13:02:01.412Z,5.60
2017-08-24T13:04:27.994Z,4.87
2017-08-24T13:06:54.710Z,5.07
2017-08-24T13:09:21.678Z,4.83
2017-08-24T13:11:48.307Z,5.20
2017-08-24T13:14:15.074Z,5.60
2017-08-24T13:16:41.774Z,5.70
2017-08-24T13:19:08.534Z,5.60
2017-08-24T13:21:35.128Z,5.40
2017-08-24T13:24:02.189Z,5.10
2017-08-24T13:26:29.689Z,5.47
2017-08-24T13:28:56.282Z,4.90
2017-08-24T13:31:23.002Z,5.37
2017-08-24T13:33:49.577Z,5.07
2017-08-24T13:36:16.144Z,4.97
2017-08-24T13:38:43.066Z,4.70
2017-08-24T13:41:09.710Z,5.00
2017-08-24T13:43:36.303Z,5.20
2017-08-24T13:46:03.013Z,5.23
2017-08-24T13:48:29.617Z,5.80
2017-08-24T13:50:56.184Z,5.63
2017-08-24T13:53:22.780Z,5.37
2017-08-24T13:55:49.485Z,5.30
2017-08-24T13:58:16.060Z,5.27
2017-08-24T14:00:42.673Z,5.20
2017-08-24T14:03:09.253Z,5.40
2017-08-24T14:05:35.832Z,5.40
2017-08-24T14:08:02.439Z,5.37
2017-08-24T14:10:29.016Z,5.43
2017-08-24T14:12:55.584Z,5.80
2017-08-24T14:15:22.276Z,5.73
2017-08-24T14:17:48.851Z,5.23
2017-08-24T14:20:15.428Z,5.13
2017-08-24T14:22:42.158Z,5.10
2017-08-24T14:25:08.733Z,5.30
2017-08-24T14:27:35.309Z,5.07
2017-08-24T14:30:01.985Z,4.93
2017-08-24T14:32:28.572Z,5.43
2017-08-24T14:34:55.266Z,3.60
2017-08-24T14:37:21.992Z,3.80
2017-08-24T14:39:48.561Z,4.47
2017-08-24T14:42:15.128Z,3.90
2017-08-24T14:44:41.743Z,3.50
2017-08-24T14:47:08.320Z,3.30
2017-08-24T14:49:34.880Z,3.13
2017-08-24T14:52:01.612Z,3.57
2017-08-24T14:54:28.229Z,3.37
2017-08-24T14:56:54.840Z,3.40
2017-08-24T14:59:21.459Z,3.50
2017-08-24T15:01:48.035Z,3.47
2017-08-24T15:04:14.600Z,3.70
2017-08-24T15:06:41.592Z,3.30
2017-08-24T15:09:08.168Z,3.60
2017-08-24T15:11:34.764Z,3.60
2017-08-24T15:14:01.374Z,3.67
2017-08-24T15:16:27.944Z,3.30
2017-08-24T15:18:54.509Z,3.33
2017-08-24T15:21:21.423Z,3.57
2017-08-24T15:23:47.998Z,3.50
2017-08-24T15:26:14.753Z,3.67
2017-08-24T15:28:42.031Z,3.47
2017-08-24T15:31:08.634Z,3.60
2017-08-24T15:33:35.228Z,3.67
2017-08-24T15:36:01.956Z,4.00
2017-08-24T15:38:28.537Z,3.73
2017-08-24T15:40:55.100Z,3.70
2017-08-24T15:43:21.706Z,3.63
2017-08-24T15:45:48.278Z,3.50
2017-08-24T15:48:14.846Z,3.57
2017-08-24T15:50:41.465Z,3.63
2017-08-24T15:53:08.036Z,3.90
2017-08-24T15:55:34.616Z,3.80
2017-08-24T15:58:01.349Z,3.90
2017-08-24T16:00:27.920Z,3.90
2017-08-24T16:02:54.501Z,4.70
2017-08-24T16:05:21.211Z,4.23
2017-08-24T16:07:47.779Z,4.00
2017-08-24T16:10:14.348Z,4.23
2017-08-24T16:12:41.311Z,3.90
2017-08-24T16:15:07.930Z,4.33
2017-08-24T16:17:34.506Z,5.20
2017-08-24T16:20:01.495Z,4.90
2017-08-24T16:22:28.063Z,4.93
2017-08-24T16:24:54.635Z,5.27
2017-08-24T16:27:21.228Z,5.10
2017-08-24T16:29:47.796Z,5.30
2017-08-24T16:34:58.658Z,4.33
2017-08-24T16:37:25.245Z,5.23
2017-08-24T16:39:51.825Z,4.90
2017-08-24T16:42:18.411Z,4.53
2017-08-24T16:44:44.991Z,4.47
2017-08-24T16:47:11.678Z,4.27
2017-08-24T16:49:38.265Z,4.60
2017-08-24T16:52:04.837Z,4.27
2017-08-24T16:54:31.433Z,4.53
2017-08-24T16:56:58.112Z,4.83
2017-08-24T16:59:24.786Z,4.80
2017-08-24T17:01:51.377Z,5.23
2017-08-24T17:04:17.966Z,5.20
2017-08-24T17:06:44.563Z,4.50
2017-08-24T17:09:11.149Z,4.60
2017-08-24T17:11:37.878Z,5.03
2017-08-24T17:16:48.402Z,4.60
2017-08-24T17:19:14.993Z,4.97
2017-08-24T17:21:41.570Z,4.80
2017-08-24T17:24:08.260Z,5.10
2017-08-24T17:26:34.811Z,5.07
2017-08-24T17:29:01.386Z,5.10
2017-08-24T17:31:27.972Z,5.40
2017-08-24T17:33:54.563Z,4.60
2017-08-24T17:36:21.136Z,4.30
2017-08-24T17:38:47.721Z,4.30
2017-08-24T17:41:14.316Z,4.80
2017-08-24T17:43:40.904Z,3.90
2017-08-24T17:46:07.485Z,4.03
2017-08-24T17:48:34.060Z,4.50
2017-08-24T17:51:00.641Z,4.33
2017-08-24T17:53:27.210Z,4.37
2017-08-24T17:55:53.805Z,4.30
2017-08-24T17:58:20.436Z,4.20
2017-08-24T18:00:47.016Z,4.20
2017-08-24T18:03:13.648Z,4.30
2017-08-24T18:05:40.319Z,4.80
2017-08-24T18:08:06.916Z,5.03
2017-08-24T18:10:33.488Z,5.13
2017-08-24T18:13:00.076Z,6.10
2017-08-24T18:15:26.651Z,5.33
2017-08-24T18:17:53.224Z,4.90
2017-08-24T18:20:20.344Z,5.80
2017-08-24T18:22:46.926Z,7.10
2017-08-24T18:25:13.507Z,7.40
2017-08-24T18:27:40.343Z,6.63
2017-08-24T18:30:07.038Z,6.00
2017-08-24T18:32:33.650Z,5.47
2017-08-24T18:35:00.223Z,6.10
2017-08-24T18:37:26.836Z,5.80
2017-08-24T18:39:53.400Z,6.03
2017-08-24T18:42:19.978Z,5.90
2017-08-24T18:44:46.560Z,5.37
2017-08-24T18:47:13.133Z,5.87
2017-08-24T18:49:39.704Z,5.87
2017-08-24T18:52:06.297Z,5.57
2017-08-24T18:54:32.868Z,5.20
2017-08-24T18:56:59.458Z,4.90
2017-08-24T18:59:26.029Z,5.20
2017-08-24T19:01:52.597Z,6.80
2017-08-24T19:04:19.213Z,7.40
2017-08-24T19:06:45.774Z,6.60
2017-08-24T19:09:12.364Z,5.67
2017-08-24T19:11:38.947Z,5.80
2017-08-24T19:14:05.512Z,5.90
2017-08-24T19:16:32.100Z,5.43
2017-08-24T19:18:58.676Z,5.67
2017-08-24T19:21:25.250Z,5.47
2017-08-24T19:23:51.836Z,6.20
2017-08-24T19:26:18.410Z,5.60
2017-08-24T19:28:44.989Z,6.13
2017-08-24T19:31:11.650Z,6.13
2017-08-24T19:33:38.227Z,6.63
2017-08-24T19:36:04.812Z,6.10
2017-08-24T19:38:31.384Z,6.00
2017-08-24T19:40:58.004Z,5.53
2017-08-24T19:43:24.655Z,5.73
2017-08-24T19:45:51.257Z,5.80
2017-08-24T19:48:17.971Z,4.93
2017-08-24T19:50:44.517Z,5.50
2017-08-24T19:53:11.088Z,5.20
2017-08-24T19:55:37.672Z,5.80
2017-08-24T19:58:04.281Z,5.80
2017-08-24T20:00:30.882Z,5.10
2017-08-24T20:02:57.489Z,5.67
2017-08-24T20:05:24.094Z,6.13
2017-08-24T20:07:50.714Z,5.00
2017-08-24T20:10:17.285Z,5.40
2017-08-24T20:12:43.872Z,5.50
2017-08-24T20:15:10.441Z,5.30
2017-08-24T20:17:37.023Z,5.53
2017-08-24T20:20:03.629Z,5.43
2017-08-24T20:22:30.180Z,5.83
2017-08-24T20:24:56.772Z,5.30
2017-08-24T20:27:23.348Z,5.47
2017-08-24T20:29:49.924Z,5.17
2017-08-24T20:32:16.510Z,5.30
2017-08-24T20:34:43.080Z,5.70
2017-08-24T20:37:09.674Z,5.30
2017-08-24T20:39:36.291Z,5.70
2017-08-24T20:42:02.856Z,5.73
2017-08-24T20:44:29.445Z,5.77
2017-08-24T20:46:56.024Z,6.20
2017-08-24T20:49:22.608Z,5.50
2017-08-24T20:51:49.269Z,5.70
2017-08-24T20:54:15.889Z,6.03
2017-08-24T20:56:42.477Z,5.73
2017-08-24T20:59:09.051Z,5.80
2017-08-24T21:01:35.636Z,5.97
2017-08-24T21:04:02.220Z,5.77
2017-08-24T21:06:28.793Z,6.17
2017-08-24T21:08:55.380Z,5.93
2017-08-24T21:11:21.960Z,5.70
2017-08-24T21:13:48.599Z,5.93
2017-08-24T21:16:15.252Z,6.03
2017-08-24T21:18:41.842Z,6.20
2017-08-24T21:21:08.428Z,5.87
2017-08-24T21:23:35.005Z,5.83
2017-08-24T21:26:01.696Z,6.63
2017-08-24T21:28:28.282Z,5.87
2017-08-24T21:30:54.882Z,6.27
2017-08-24T21:33:21.476Z,6.10
2017-08-24T21:35:48.049Z,5.67
2017-08-24T21:38:14.642Z,6.80
2017-08-24T21:40:41.214Z,6.77
2017-08-24T21:43:07.789Z,6.13
2017-08-24T21:45:34.381Z,6.00
2017-08-24T21:48:00.952Z,6.47
2017-08-24T21:50:27.544Z,6.40
2017-08-24T21:52:54.137Z,6.27
2017-08-24T21:55:20.717Z,6.13
2017-08-24T21:57:47.285Z,6.30
2017-08-24T22:00:13.879Z,6.50
2017-08-24T22:02:40.457Z,6.23
2017-08-24T22:05:07.037Z,6.70
2017-08-24T22:07:33.678Z,6.57
2017-08-24T22:10:00.237Z,6.73
2017-08-24T22:12:26.820Z,6.87
2017-08-24T22:14:53.556Z,6.80
2017-08-24T22:17:20.131Z,6.87
2017-08-24T22:19:46.705Z,7.20
2017-08-24T22:22:13.307Z,6.47
2017-08-24T22:24:39.879Z,7.00
2017-08-24T22:27:06.546Z,6.43
2017-08-24T22:29:33.141Z,6.50
2017-08-24T22:31:59.716Z,6.43
2017-08-24T22:34:26.295Z,7.10
2017-08-24T22:36:52.880Z,6.40
2017-08-24T22:39:19.458Z,7.07
2017-08-24T22:41:46.029Z,6.10
2017-08-24T22:44:12.668Z,6.43
2017-08-24T22:46:39.245Z,7.07
2017-08-24T22:49:05.824Z,6.90
2017-08-24T22:51:32.421Z,6.47
2017-08-24T22:54:04.767Z,7.00
2017-08-24T22:56:37.105Z,6.50
2017-08-24T22:59:09.443Z,6.83
2017-08-24T23:01:41.840Z,6.90
2017-08-24T23:04:08.420Z,7.10
2017-08-24T23:06:35.001Z,6.93
2017-08-24T23:09:01.592Z,6.93
2017-08-24T23:11:28.253Z,7.27
2017-08-24T23:13:54.834Z,6.43
2017-08-24T23:16:21.427Z,6.83
2017-08-24T23:18:48.013Z,6.77
2017-08-24T23:21:14.594Z,6.97
2017-08-24T23:23:41.206Z,6.40
2017-08-24T23:26:07.779Z,6.80
2017-08-24T23:28:34.361Z,6.73
2017-08-24T23:31:01.057Z,7.10
2017-08-24T23:33:27.624Z,7.17
2017-08-24T23:35:55.054Z,7.27
2017-08-24T23:38:21.637Z,6.87
2017-08-24T23:40:48.209Z,6.43
2017-08-24T23:43:14.775Z,7.03
2017-08-24T23:45:41.518Z,7.13
2017-08-24T23:48:08.098Z,6.43
2017-08-24T23:50:34.695Z,6.97
2017-08-24T23:53:01.300Z,6.93
2017-08-24T23:55:27.884Z,6.70
2017-08-24T23:57:54.468Z,7.00
